Time;durP1;ratioP1;P1;durP2;ratioP2;P2;SDS_P1;SDS_P2;PMS_P1;PMS_P2;Temp;Humidity;BMP_temperature;BMP_pressure;BME280_temperature;BME280_humidity;BME280_pressure;Samples;Min_cycle;Max_cycle;Signal;HPM_P1;HPM_P2
2021/06/13 00:02:14;;;;;;;48.20;21.05;;;;;;;;;;5105914;28;20039;-66
2021/06/13 00:04:39;;;;;;;35.08;15.23;;;;;;;;;;5108352;28;20031;-67
2021/06/13 00:07:04;;;;;;;30.70;12.98;;;;;;;;;;5098663;28;20400;-66
2021/06/13 00:09:30;;;;;;;27.77;11.23;;;;;;;;;;5111926;28;20046;-67
2021/06/13 00:11:55;;;;;;;22.77;10.45;;;;;;;;;;5101525;28;20045;-66
2021/06/13 00:14:24;;;;;;;37.67;13.18;;;;;;;;;;5104844;28;20090;-66
2021/06/13 00:16:49;;;;;;;29.77;12.82;;;;;;;;;;5113478;28;20102;-67
2021/06/13 00:19:15;;;;;;;33.72;14.57;;;;;;;;;;5098269;28;20063;-66
2021/06/13 00:21:40;;;;;;;34.75;12.55;;;;;;;;;;5110307;28;20027;-67
2021/06/13 00:24:06;;;;;;;34.03;12.50;;;;;;;;;;5098612;28;20438;-67
2021/06/13 00:26:31;;;;;;;24.60;10.50;;;;;;;;;;5106707;28;20016;-66
2021/06/13 00:28:57;;;;;;;19.23;9.05;;;;;;;;;;5099389;28;20034;-67
2021/06/13 00:31:22;;;;;;;26.17;9.80;;;;;;;;;;5111608;28;20062;-69
2021/06/13 00:33:47;;;;;;;16.48;8.05;;;;;;;;;;5100377;28;20051;-69
2021/06/13 00:36:12;;;;;;;21.58;8.52;;;;;;;;;;5105764;28;20111;-69
2021/06/13 00:38:38;;;;;;;27.80;10.27;;;;;;;;;;5107445;28;20027;-69
2021/06/13 00:41:03;;;;;;;34.25;13.25;;;;;;;;;;5098533;28;20349;-69
2021/06/13 00:43:28;;;;;;;56.17;21.27;;;;;;;;;;5111086;28;20081;-66
2021/06/13 00:45:54;;;;;;;33.88;16.08;;;;;;;;;;5101598;28;20106;-67
2021/06/13 00:48:19;;;;;;;34.70;14.73;;;;;;;;;;5104543;28;20031;-66
2021/06/13 00:50:52;;;;;;;29.25;10.95;;;;;;;;;;5108193;28;20039;-66
2021/06/13 00:53:17;;;;;;;41.85;18.83;;;;;;;;;;5097599;28;20492;-67
2021/06/13 00:55:42;;;;;;;24.50;11.52;;;;;;;;;;5109392;28;20107;-66
2021/06/13 00:58:08;;;;;;;26.45;10.90;;;;;;;;;;5102971;28;20070;-66
2021/06/13 01:00:34;;;;;;;21.40;9.63;;;;;;;;;;5102215;28;20028;-66
2021/06/13 01:02:59;;;;;;;25.15;10.48;;;;;;;;;;5110158;28;20421;-66
2021/06/13 01:05:25;;;;;;;23.35;11.10;;;;;;;;;;5094825;28;20043;-67
2021/06/13 01:08:13;;;;;;;24.95;9.85;;;;;;;;;;5108686;28;20027;-66
2021/06/13 01:10:50;;;;;;;25.08;8.82;;;;;;;;;;5114266;28;20052;-67
2021/06/13 01:13:28;;;;;;;24.40;9.68;;;;;;;;;;5114150;28;20031;-66
2021/06/13 01:16:19;;;;;;;21.52;9.90;;;;;;;;;;5113779;28;20050;-67
2021/06/13 01:18:57;;;;;;;35.60;13.77;;;;;;;;;;5110277;28;20460;-66
2021/06/13 01:21:24;;;;;;;27.08;11.82;;;;;;;;;;5112557;28;20020;-68
2021/06/13 01:23:59;;;;;;;35.50;14.48;;;;;;;;;;5113692;28;20043;-69
2021/06/13 01:26:42;;;;;;;21.33;9.77;;;;;;;;;;5093989;28;20098;-68
2021/06/13 01:29:12;;;;;;;23.30;9.55;;;;;;;;;;5109312;28;20031;-69
2021/06/13 01:31:41;;;;;;;22.92;9.55;;;;;;;;;;5114035;28;20384;-69
2021/06/13 01:34:11;;;;;;;26.35;9.95;;;;;;;;;;5112877;28;20035;-69
2021/06/13 01:36:36;;;;;;;25.15;10.43;;;;;;;;;;5114200;28;20034;-69
2021/06/13 01:39:04;;;;;;;18.98;9.13;;;;;;;;;;5113643;28;20099;-68
2021/06/13 01:41:31;;;;;;;19.13;8.77;;;;;;;;;;5112423;28;20035;-68
2021/06/13 01:43:58;;;;;;;21.00;9.30;;;;;;;;;;5100462;28;20038;-67
2021/06/13 01:46:25;;;;;;;29.67;10.57;;;;;;;;;;5112727;28;20368;-66
2021/06/13 01:48:51;;;;;;;31.05;11.40;;;;;;;;;;5080891;28;20069;-66
2021/06/13 01:51:17;;;;;;;25.40;9.85;;;;;;;;;;5099982;28;20043;-67
2021/06/13 01:53:43;;;;;;;25.90;9.20;;;;;;;;;;5112685;28;20027;-66
2021/06/13 01:56:12;;;;;;;25.83;9.38;;;;;;;;;;5113085;28;20376;-67
2021/06/13 01:58:38;;;;;;;49.53;17.27;;;;;;;;;;5105872;28;20102;-67
2021/06/13 02:01:05;;;;;;;30.05;10.65;;;;;;;;;;5094480;28;20031;-65
2021/06/13 02:03:30;;;;;;;39.00;13.45;;;;;;;;;;5101469;28;20535;-65
2021/06/13 02:05:56;;;;;;;24.30;9.55;;;;;;;;;;5108079;28;20172;-66
2021/06/13 02:08:22;;;;;;;23.77;8.95;;;;;;;;;;5094552;28;20073;-66
2021/06/13 02:10:47;;;;;;;47.08;17.08;;;;;;;;;;5109211;28;20056;-67
2021/06/13 02:13:14;;;;;;;30.83;8.52;;;;;;;;;;5108440;28;20395;-67
2021/06/13 02:15:40;;;;;;;18.25;8.40;;;;;;;;;;5094322;28;20020;-66
2021/06/13 02:18:06;;;;;;;22.23;8.25;;;;;;;;;;5092665;28;20365;-66
2021/06/13 02:20:32;;;;;;;17.38;8.23;;;;;;;;;;5098489;28;20077;-67
2021/06/13 02:22:58;;;;;;;23.15;8.15;;;;;;;;;;5109132;28;20020;-67
2021/06/13 02:25:23;;;;;;;34.83;13.38;;;;;;;;;;5102006;28;20043;-66
2021/06/13 02:27:53;;;;;;;31.50;10.95;;;;;;;;;;5112694;28;20038;-67
2021/06/13 02:30:19;;;;;;;35.22;11.43;;;;;;;;;;5111444;28;20103;-67
2021/06/13 02:32:45;;;;;;;44.55;14.95;;;;;;;;;;5115773;28;20047;-66
2021/06/13 02:35:11;;;;;;;21.73;9.23;;;;;;;;;;5105581;28;20032;-66
2021/06/13 02:37:38;;;;;;;23.23;9.02;;;;;;;;;;5117055;28;20022;-66
2021/06/13 02:40:06;;;;;;;24.63;8.55;;;;;;;;;;5116555;28;20034;-67
2021/06/13 02:42:31;;;;;;;22.98;8.75;;;;;;;;;;5117435;28;20028;-67
2021/06/13 02:44:56;;;;;;;40.50;13.32;;;;;;;;;;5116897;28;20027;-66
2021/06/13 02:47:22;;;;;;;27.15;9.45;;;;;;;;;;5116979;28;20027;-66
2021/06/13 02:49:47;;;;;;;34.50;12.90;;;;;;;;;;5116669;28;20371;-66
2021/06/13 02:52:40;;;;;;;19.77;8.65;;;;;;;;;;5108916;28;20028;-66
2021/06/13 02:55:06;;;;;;;20.95;8.35;;;;;;;;;;5075174;28;20491;-66
2021/06/13 02:57:34;;;;;;;30.73;10.48;;;;;;;;;;5116894;28;20452;-66
2021/06/13 03:00:04;;;;;;;23.55;8.77;;;;;;;;;;5116708;28;20085;-66
2021/06/13 03:02:30;;;;;;;21.92;8.57;;;;;;;;;;5116791;28;20028;-66
2021/06/13 03:04:58;;;;;;;21.98;8.80;;;;;;;;;;5116161;28;20084;-66
2021/06/13 03:07:24;;;;;;;21.13;8.20;;;;;;;;;;5116853;28;20054;-67
2021/06/13 03:09:50;;;;;;;15.35;7.63;;;;;;;;;;5115067;28;20027;-66
2021/06/13 03:12:15;;;;;;;20.63;7.82;;;;;;;;;;5116946;28;20073;-66
2021/06/13 03:14:41;;;;;;;18.30;8.35;;;;;;;;;;5116384;28;20024;-67
2021/06/13 03:17:07;;;;;;;21.38;8.32;;;;;;;;;;5116770;28;20426;-66
2021/06/13 03:19:33;;;;;;;23.17;8.23;;;;;;;;;;5116397;28;20024;-66
2021/06/13 03:21:58;;;;;;;23.80;9.68;;;;;;;;;;5116055;28;20039;-66
2021/06/13 03:24:24;;;;;;;22.38;8.60;;;;;;;;;;5116206;28;20039;-66
2021/06/13 03:26:51;;;;;;;14.77;7.25;;;;;;;;;;5116313;28;20466;-66
2021/06/13 03:29:17;;;;;;;25.55;8.52;;;;;;;;;;5116181;28;20039;-67
2021/06/13 03:31:43;;;;;;;24.58;8.13;;;;;;;;;;5116060;28;20432;-68
2021/06/13 03:34:09;;;;;;;17.05;7.07;;;;;;;;;;5116277;28;20027;-69
2021/06/13 03:36:36;;;;;;;18.35;8.40;;;;;;;;;;5115913;28;20031;-68
2021/06/13 03:39:01;;;;;;;15.02;6.97;;;;;;;;;;5115895;28;20487;-68
2021/06/13 03:41:27;;;;;;;22.38;7.70;;;;;;;;;;5115467;28;20095;-68
2021/06/13 03:43:53;;;;;;;17.95;7.70;;;;;;;;;;5116046;28;20173;-66
2021/06/13 03:46:19;;;;;;;20.38;8.07;;;;;;;;;;5115997;28;20028;-66
2021/06/13 03:48:44;;;;;;;23.35;7.93;;;;;;;;;;5115971;28;20371;-66
2021/06/13 03:51:14;;;;;;;19.13;7.10;;;;;;;;;;5115679;28;20547;-66
2021/06/13 03:53:54;;;;;;;18.23;7.07;;;;;;;;;;5116025;28;20097;-66
2021/06/13 03:56:20;;;;;;;21.70;8.57;;;;;;;;;;5115520;28;20446;-66
2021/06/13 03:58:46;;;;;;;20.63;8.88;;;;;;;;;;5115808;28;20027;-66
2021/06/13 04:01:12;;;;;;;21.73;8.18;;;;;;;;;;5115714;28;20019;-67
2021/06/13 04:03:40;;;;;;;16.48;7.57;;;;;;;;;;5115543;28;20015;-67
2021/06/13 04:06:06;;;;;;;13.30;6.80;;;;;;;;;;5115169;28;20032;-67
2021/06/13 04:08:31;;;;;;;14.10;6.95;;;;;;;;;;5115581;28;20018;-67
2021/06/13 04:10:57;;;;;;;17.92;7.40;;;;;;;;;;5115249;28;20044;-67
2021/06/13 04:13:23;;;;;;;14.43;7.32;;;;;;;;;;5115293;28;20072;-66
2021/06/13 04:15:48;;;;;;;17.27;7.05;;;;;;;;;;5115218;28;20023;-67
2021/06/13 04:18:14;;;;;;;22.00;7.93;;;;;;;;;;5115436;28;20072;-66
2021/06/13 04:20:41;;;;;;;17.70;7.30;;;;;;;;;;5115114;28;20081;-66
2021/06/13 04:23:08;;;;;;;25.70;8.50;;;;;;;;;;5096768;28;20027;-65
2021/06/13 04:25:33;;;;;;;18.80;8.40;;;;;;;;;;5115022;28;20498;-66
2021/06/13 04:27:59;;;;;;;23.65;7.95;;;;;;;;;;5114904;28;20059;-67
2021/06/13 04:30:24;;;;;;;16.75;7.25;;;;;;;;;;5114911;28;20055;-66
2021/06/13 04:32:50;;;;;;;25.52;8.85;;;;;;;;;;5115076;28;20027;-66
2021/06/13 04:35:16;;;;;;;16.35;7.32;;;;;;;;;;5115153;28;20032;-66
2021/06/13 04:37:41;;;;;;;24.33;7.97;;;;;;;;;;5114986;28;20073;-67
2021/06/13 04:40:07;;;;;;;20.80;8.38;;;;;;;;;;5115127;28;20031;-67
2021/06/13 04:42:32;;;;;;;22.33;8.02;;;;;;;;;;5115436;28;20039;-66
2021/06/13 04:44:58;;;;;;;17.15;6.50;;;;;;;;;;5114596;28;20102;-66
2021/06/13 04:47:23;;;;;;;27.38;7.45;;;;;;;;;;5115108;28;20456;-67
2021/06/13 04:49:51;;;;;;;26.15;7.03;;;;;;;;;;5114575;28;20106;-66
2021/06/13 04:52:17;;;;;;;159.05;14.10;;;;;;;;;;5114855;28;20027;-67
2021/06/13 04:54:42;;;;;;;16.98;4.93;;;;;;;;;;5114166;28;20027;-66
2021/06/13 04:57:20;;;;;;;12.25;4.00;;;;;;;;;;5115056;28;20341;-67
2021/06/13 04:59:45;;;;;;;17.98;5.07;;;;;;;;;;5114428;28;20376;-67
2021/06/13 05:02:10;;;;;;;42.50;5.97;;;;;;;;;;5113885;28;20045;-66
2021/06/13 05:04:36;;;;;;;20.92;4.65;;;;;;;;;;5114256;28;20039;-66
2021/06/13 05:07:04;;;;;;;5.75;2.78;;;;;;;;;;5114680;28;20024;-67
2021/06/13 05:09:33;;;;;;;5.40;2.58;;;;;;;;;;5114359;28;20058;-66
2021/06/13 05:11:58;;;;;;;6.68;3.65;;;;;;;;;;5093558;28;20480;-67
2021/06/13 05:14:23;;;;;;;9.32;4.28;;;;;;;;;;5098863;28;20061;-67
2021/06/13 05:16:49;;;;;;;2.85;2.00;;;;;;;;;;5095850;28;20023;-67
2021/06/13 05:19:14;;;;;;;4.93;2.28;;;;;;;;;;5114125;28;20023;-67
2021/06/13 05:21:39;;;;;;;3.72;2.00;;;;;;;;;;5114377;28;20065;-68
2021/06/13 05:24:05;;;;;;;3.60;1.90;;;;;;;;;;5113940;28;20514;-67
2021/06/13 05:26:30;;;;;;;2.70;2.00;;;;;;;;;;5114077;28;20068;-67
2021/06/13 05:28:56;;;;;;;4.70;2.63;;;;;;;;;;5114013;28;20023;-67
2021/06/13 05:31:22;;;;;;;4.13;2.65;;;;;;;;;;5114160;28;20039;-68
2021/06/13 05:33:48;;;;;;;2.67;2.13;;;;;;;;;;5114054;28;20019;-66
2021/06/13 05:36:13;;;;;;;9.07;4.00;;;;;;;;;;5113399;28;20519;-67
2021/06/13 05:38:41;;;;;;;3.30;1.70;;;;;;;;;;5114066;28;20058;-67
2021/06/13 05:41:06;;;;;;;2.42;2.00;;;;;;;;;;5113803;28;20114;-68
2021/06/13 05:43:31;;;;;;;3.75;1.70;;;;;;;;;;5114036;28;20498;-67
2021/06/13 05:45:58;;;;;;;4.28;2.17;;;;;;;;;;5113466;28;20038;-68
2021/06/13 05:48:24;;;;;;;7.72;3.17;;;;;;;;;;5113997;28;20026;-68
2021/06/13 05:50:49;;;;;;;4.63;2.78;;;;;;;;;;5113535;28;20389;-67
2021/06/13 05:53:14;;;;;;;6.05;2.35;;;;;;;;;;5113984;28;20031;-68
2021/06/13 05:55:40;;;;;;;2.65;1.70;;;;;;;;;;5113163;28;20027;-67
2021/06/13 05:58:06;;;;;;;5.25;1.60;;;;;;;;;;5113768;28;20032;-68
2021/06/13 06:00:32;;;;;;;2.40;1.40;;;;;;;;;;5113486;28;20043;-68
2021/06/13 06:02:57;;;;;;;3.50;1.25;;;;;;;;;;5113526;28;20027;-68
2021/06/13 06:05:23;;;;;;;2.00;1.30;;;;;;;;;;5112931;28;20062;-68
2021/06/13 06:07:49;;;;;;;2.88;1.50;;;;;;;;;;5112845;28;20027;-68
2021/06/13 06:10:15;;;;;;;2.17;1.38;;;;;;;;;;5113439;28;20087;-69
2021/06/13 06:12:43;;;;;;;3.13;1.60;;;;;;;;;;5112921;28;20043;-67
2021/06/13 06:15:10;;;;;;;2.75;1.40;;;;;;;;;;5113318;28;20078;-69
2021/06/13 06:17:35;;;;;;;1.85;1.30;;;;;;;;;;5113408;28;20016;-69
2021/06/13 06:20:01;;;;;;;3.17;1.30;;;;;;;;;;5112949;28;20027;-68
2021/06/13 06:22:26;;;;;;;6.18;1.55;;;;;;;;;;5113552;28;20115;-69
2021/06/13 06:24:51;;;;;;;4.47;1.58;;;;;;;;;;5112878;28;20441;-68
2021/06/13 06:27:17;;;;;;;5.35;2.10;;;;;;;;;;5113604;28;20352;-69
2021/06/13 06:29:42;;;;;;;2.08;1.40;;;;;;;;;;5113095;28;20027;-68
2021/06/13 06:32:07;;;;;;;3.17;1.63;;;;;;;;;;5113145;28;20051;-69
2021/06/13 06:34:33;;;;;;;4.60;1.40;;;;;;;;;;5113121;28;20309;-68
2021/06/13 06:36:58;;;;;;;5.45;1.70;;;;;;;;;;5113374;28;20035;-69
2021/06/13 06:39:23;;;;;;;4.30;1.70;;;;;;;;;;5113050;28;20026;-69
2021/06/13 06:41:49;;;;;;;2.63;1.40;;;;;;;;;;5113360;28;20474;-70
2021/06/13 06:44:14;;;;;;;2.25;1.40;;;;;;;;;;5112874;28;20103;-68
2021/06/13 06:46:40;;;;;;;2.47;1.42;;;;;;;;;;5112949;28;20028;-69
2021/06/13 06:49:05;;;;;;;4.82;1.50;;;;;;;;;;5113272;28;20475;-69
2021/06/13 06:51:31;;;;;;;3.30;1.45;;;;;;;;;;5113412;28;20028;-70
2021/06/13 06:53:57;;;;;;;2.10;1.58;;;;;;;;;;5113177;28;20081;-67
2021/06/13 06:56:23;;;;;;;3.20;1.73;;;;;;;;;;5094831;28;20461;-69
2021/06/13 06:58:48;;;;;;;3.63;1.48;;;;;;;;;;5113142;28;20145;-69
2021/06/13 07:01:14;;;;;;;3.23;1.57;;;;;;;;;;5112589;28;20047;-69
2021/06/13 07:03:39;;;;;;;4.15;1.55;;;;;;;;;;5113014;28;20720;-70
2021/06/13 07:06:04;;;;;;;2.83;1.70;;;;;;;;;;5112538;28;20103;-69
2021/06/13 07:08:30;;;;;;;2.73;1.50;;;;;;;;;;5113076;28;20375;-69
2021/06/13 07:10:55;;;;;;;3.33;1.90;;;;;;;;;;5113019;28;20275;-69
2021/06/13 07:13:20;;;;;;;3.15;1.73;;;;;;;;;;5112954;28;20762;-70
2021/06/13 07:15:46;;;;;;;5.22;1.77;;;;;;;;;;5113015;28;20050;-69
2021/06/13 07:18:11;;;;;;;4.78;1.63;;;;;;;;;;5116538;28;20030;-68
2021/06/13 07:20:36;;;;;;;3.03;1.95;;;;;;;;;;5116312;28;20123;-70
2021/06/13 07:23:02;;;;;;;1.90;1.40;;;;;;;;;;5116918;28;20076;-69
2021/06/13 07:25:28;;;;;;;2.60;1.50;;;;;;;;;;5116216;28;20674;-70
2021/06/13 07:27:53;;;;;;;5.50;1.90;;;;;;;;;;5108220;28;20031;-69
2021/06/13 07:30:19;;;;;;;2.92;1.48;;;;;;;;;;5104753;28;20027;-69
2021/06/13 07:32:44;;;;;;;2.88;1.60;;;;;;;;;;5110599;28;20023;-69
2021/06/13 07:35:12;;;;;;;4.63;1.70;;;;;;;;;;5113447;28;20036;-70
2021/06/13 07:37:37;;;;;;;2.10;1.60;;;;;;;;;;5100916;28;20384;-69
2021/06/13 07:40:03;;;;;;;4.28;1.73;;;;;;;;;;5106785;28;20019;-70
2021/06/13 07:42:28;;;;;;;2.88;1.60;;;;;;;;;;5108101;28;20039;-70
2021/06/13 07:44:54;;;;;;;2.17;1.40;;;;;;;;;;5101420;28;20049;-69
2021/06/13 07:47:19;;;;;;;3.22;1.52;;;;;;;;;;5097783;28;20245;-70
2021/06/13 07:49:45;;;;;;;2.03;1.52;;;;;;;;;;5115827;28;20038;-70
2021/06/13 07:52:11;;;;;;;5.13;1.58;;;;;;;;;;5115602;28;20015;-69
2021/06/13 07:54:36;;;;;;;2.13;1.60;;;;;;;;;;5115756;28;20082;-70
2021/06/13 07:57:02;;;;;;;4.07;1.48;;;;;;;;;;5115776;28;20059;-70
2021/06/13 07:59:27;;;;;;;4.57;1.88;;;;;;;;;;5115635;28;20019;-70
2021/06/13 08:01:52;;;;;;;2.40;1.50;;;;;;;;;;5115619;28;20051;-66
2021/06/13 08:04:18;;;;;;;1.67;1.35;;;;;;;;;;5115362;28;20039;-67
2021/06/13 08:06:43;;;;;;;2.47;1.60;;;;;;;;;;5115152;28;20090;-67
2021/06/13 08:09:08;;;;;;;3.70;1.73;;;;;;;;;;5115658;28;20484;-67
2021/06/13 08:11:35;;;;;;;2.45;1.48;;;;;;;;;;5115490;28;20055;-67
2021/06/13 08:14:00;;;;;;;2.50;1.70;;;;;;;;;;5115258;28;20074;-68
2021/06/13 08:16:25;;;;;;;2.53;1.50;;;;;;;;;;5115012;28;20015;-67
2021/06/13 08:18:51;;;;;;;4.25;1.52;;;;;;;;;;5115350;28;20036;-67
2021/06/13 08:21:17;;;;;;;2.17;1.40;;;;;;;;;;5115836;28;20056;-67
2021/06/13 08:23:42;;;;;;;2.33;1.43;;;;;;;;;;5114935;28;20024;-66
2021/06/13 08:26:07;;;;;;;3.23;1.63;;;;;;;;;;5115403;28;20267;-66
2021/06/13 08:28:33;;;;;;;2.80;1.40;;;;;;;;;;5115192;28;20272;-66
2021/06/13 08:30:58;;;;;;;5.53;1.65;;;;;;;;;;5114797;28;20023;-66
2021/06/13 08:33:24;;;;;;;3.20;1.40;;;;;;;;;;5115363;28;20110;-66
2021/06/13 08:35:50;;;;;;;4.93;1.40;;;;;;;;;;5114837;28;20490;-67
2021/06/13 08:38:15;;;;;;;4.07;1.52;;;;;;;;;;5114688;28;20073;-67
2021/06/13 08:40:41;;;;;;;2.80;1.35;;;;;;;;;;5115003;28;20034;-66
2021/06/13 08:43:06;;;;;;;3.03;1.40;;;;;;;;;;5114618;28;20371;-67
2021/06/13 08:45:33;;;;;;;5.07;1.67;;;;;;;;;;5114527;28;20444;-66
2021/06/13 08:48:00;;;;;;;4.45;1.52;;;;;;;;;;5114711;28;20110;-67
2021/06/13 08:50:26;;;;;;;2.60;1.58;;;;;;;;;;5114536;28;20049;-66
2021/06/13 08:52:51;;;;;;;4.22;1.95;;;;;;;;;;5114910;28;20487;-66
2021/06/13 08:55:17;;;;;;;3.85;2.10;;;;;;;;;;5114146;28;20035;-68
2021/06/13 08:57:42;;;;;;;5.10;2.00;;;;;;;;;;5113695;28;20027;-67
2021/06/13 09:00:11;;;;;;;3.78;1.70;;;;;;;;;;5114626;28;20019;-68
2021/06/13 09:02:37;;;;;;;7.40;2.55;;;;;;;;;;5114630;28;20020;-68
2021/06/13 09:05:04;;;;;;;3.22;1.77;;;;;;;;;;5114463;28;20031;-67
2021/06/13 09:07:29;;;;;;;4.00;2.35;;;;;;;;;;5114567;28;20029;-69
2021/06/13 09:09:55;;;;;;;3.90;1.80;;;;;;;;;;5114468;28;20471;-68
2021/06/13 09:12:21;;;;;;;4.13;1.90;;;;;;;;;;5114301;28;20024;-69
2021/06/13 09:14:50;;;;;;;4.80;1.95;;;;;;;;;;5112172;28;20034;-68
2021/06/13 09:17:18;;;;;;;5.18;2.00;;;;;;;;;;5114102;28;20541;-68
2021/06/13 09:20:01;;;;;;;4.85;2.22;;;;;;;;;;5114251;28;20019;-67
2021/06/13 09:22:26;;;;;;;3.90;2.17;;;;;;;;;;5114319;28;20510;-66
2021/06/13 09:25:03;;;;;;;6.90;2.27;;;;;;;;;;5114180;28;20059;-67
2021/06/13 09:27:29;;;;;;;4.07;1.90;;;;;;;;;;5114343;28;20251;-67
2021/06/13 09:29:54;;;;;;;3.83;1.80;;;;;;;;;;5095838;28;20035;-66
2021/06/13 09:32:19;;;;;;;11.43;1.93;;;;;;;;;;5114584;28;20743;-68
2021/06/13 09:34:44;;;;;;;6.00;2.40;;;;;;;;;;5113805;28;20330;-67
2021/06/13 09:37:10;;;;;;;5.25;1.85;;;;;;;;;;5113869;28;20055;-68
2021/06/13 09:39:35;;;;;;;5.47;2.30;;;;;;;;;;5112774;28;20039;-67
2021/06/13 09:42:10;;;;;;;4.40;2.28;;;;;;;;;;5113951;28;20031;-68
2021/06/13 09:44:36;;;;;;;8.60;2.25;;;;;;;;;;5113718;28;20024;-67
2021/06/13 09:47:03;;;;;;;4.20;2.05;;;;;;;;;;5113878;28;20074;-68
2021/06/13 09:49:41;;;;;;;4.05;1.88;;;;;;;;;;5113221;28;20032;-68
2021/06/13 09:52:07;;;;;;;5.60;1.83;;;;;;;;;;5113581;28;20035;-67
2021/06/13 09:54:33;;;;;;;4.50;1.95;;;;;;;;;;5113142;28;20044;-68
2021/06/13 09:57:01;;;;;;;3.20;1.87;;;;;;;;;;5113820;28;20019;-67
2021/06/13 09:59:27;;;;;;;3.33;1.83;;;;;;;;;;5113415;28;20260;-68
2021/06/13 10:01:56;;;;;;;6.90;2.05;;;;;;;;;;5113542;28;20027;-70
2021/06/13 10:04:22;;;;;;;3.55;2.08;;;;;;;;;;5112934;28;20080;-69
2021/06/13 10:06:49;;;;;;;4.78;1.90;;;;;;;;;;5113477;28;20039;-70
2021/06/13 10:09:15;;;;;;;4.22;2.15;;;;;;;;;;5108419;28;20049;-70
2021/06/13 10:11:40;;;;;;;5.85;1.90;;;;;;;;;;5110541;28;20484;-70
2021/06/13 10:14:07;;;;;;;6.18;2.25;;;;;;;;;;5112402;28;20122;-71
2021/06/13 10:16:39;;;;;;;3.30;1.85;;;;;;;;;;5097405;28;20447;-71
2021/06/13 10:19:07;;;;;;;5.07;1.90;;;;;;;;;;5093125;28;20020;-70
2021/06/13 10:21:52;;;;;;;5.15;2.00;;;;;;;;;;5092769;28;20499;-71
2021/06/13 10:24:21;;;;;;;4.18;1.80;;;;;;;;;;5110575;28;20468;-70
2021/06/13 10:26:48;;;;;;;4.43;2.00;;;;;;;;;;5113475;28;20039;-71
2021/06/13 10:29:14;;;;;;;9.38;1.92;;;;;;;;;;5113507;28;20118;-70
2021/06/13 10:31:40;;;;;;;3.00;1.70;;;;;;;;;;5113349;28;20103;-70
2021/06/13 10:34:06;;;;;;;5.10;1.67;;;;;;;;;;5113316;28;20043;-70
2021/06/13 10:36:32;;;;;;;5.22;1.75;;;;;;;;;;5112912;28;20081;-70
2021/06/13 10:38:58;;;;;;;5.25;1.90;;;;;;;;;;5113208;28;20039;-70
2021/06/13 10:41:24;;;;;;;2.88;1.70;;;;;;;;;;5113307;28;20047;-69
2021/06/13 10:43:49;;;;;;;3.30;1.70;;;;;;;;;;5113242;28;20035;-69
2021/06/13 10:46:17;;;;;;;5.20;1.70;;;;;;;;;;5111575;28;20023;-70
2021/06/13 10:48:48;;;;;;;5.70;1.65;;;;;;;;;;5112281;28;20294;-69
2021/06/13 10:51:33;;;;;;;7.57;1.85;;;;;;;;;;5109268;28;20031;-69
2021/06/13 10:54:17;;;;;;;5.57;1.50;;;;;;;;;;5101034;28;20499;-69
2021/06/13 10:56:42;;;;;;;5.72;1.67;;;;;;;;;;5069526;28;20563;-70
2021/06/13 10:59:13;;;;;;;3.92;1.85;;;;;;;;;;5115999;28;20039;-68
2021/06/13 11:01:55;;;;;;;5.20;1.88;;;;;;;;;;5103101;28;20032;-69
2021/06/13 11:04:39;;;;;;;8.30;2.05;;;;;;;;;;5112181;28;20392;-69
2021/06/13 11:07:04;;;;;;;5.20;2.13;;;;;;;;;;5108975;28;20069;-67
2021/06/13 11:09:30;;;;;;;4.75;2.35;;;;;;;;;;5103648;28;20052;-68
2021/06/13 11:11:55;;;;;;;7.65;2.30;;;;;;;;;;5110229;28;20047;-69
2021/06/13 11:14:24;;;;;;;5.72;2.28;;;;;;;;;;5113995;28;20039;-68
2021/06/13 11:16:54;;;;;;;5.13;2.10;;;;;;;;;;5111644;28;20047;-69
2021/06/13 11:19:28;;;;;;;5.20;1.98;;;;;;;;;;5104851;28;20036;-69
2021/06/13 11:22:12;;;;;;;4.97;2.10;;;;;;;;;;5093817;28;20032;-69
2021/06/13 11:24:50;;;;;;;5.47;2.08;;;;;;;;;;5095378;28;20066;-69
2021/06/13 11:27:15;;;;;;;5.03;2.22;;;;;;;;;;5093339;28;20399;-69
2021/06/13 11:29:52;;;;;;;5.57;2.28;;;;;;;;;;5100490;28;20028;-68
2021/06/13 11:32:38;;;;;;;5.65;2.20;;;;;;;;;;5114122;28;20035;-68
2021/06/13 11:35:23;;;;;;;5.05;2.47;;;;;;;;;;5096634;28;20049;-67
2021/06/13 11:38:05;;;;;;;7.75;2.08;;;;;;;;;;5089759;28;20036;-68
2021/06/13 11:40:31;;;;;;;7.00;2.63;;;;;;;;;;5105043;28;20031;-69
2021/06/13 11:43:09;;;;;;;4.03;2.08;;;;;;;;;;5106713;28;20383;-68
2021/06/13 11:45:34;;;;;;;7.88;3.00;;;;;;;;;;5094991;28;20031;-68
2021/06/13 11:48:19;;;;;;;6.47;2.50;;;;;;;;;;5109097;28;20028;-68
2021/06/13 11:50:57;;;;;;;8.30;2.63;;;;;;;;;;5099977;28;20476;-67
2021/06/13 11:53:41;;;;;;;4.13;2.35;;;;;;;;;;5110560;28;20027;-69
2021/06/13 11:56:08;;;;;;;10.43;2.95;;;;;;;;;;5107098;28;20395;-67
2021/06/13 11:58:34;;;;;;;6.90;2.55;;;;;;;;;;5113518;28;20476;-69
2021/06/13 12:01:00;;;;;;;15.43;2.65;;;;;;;;;;5113873;28;20068;-68
2021/06/13 12:03:25;;;;;;;8.23;2.90;;;;;;;;;;5110891;28;20073;-68
2021/06/13 12:06:00;;;;;;;6.03;2.63;;;;;;;;;;5094490;28;20024;-68
2021/06/13 12:08:25;;;;;;;4.38;2.50;;;;;;;;;;5094305;28;20032;-67
2021/06/13 12:10:51;;;;;;;7.88;3.03;;;;;;;;;;5094683;28;20131;-68
2021/06/13 12:13:16;;;;;;;7.25;2.50;;;;;;;;;;5094831;28;20056;-68
2021/06/13 12:15:41;;;;;;;4.55;2.38;;;;;;;;;;5102542;28;20028;-68
2021/06/13 12:18:14;;;;;;;7.93;3.15;;;;;;;;;;5107506;28;20071;-68
2021/06/13 12:20:39;;;;;;;4.60;2.65;;;;;;;;;;5094249;28;20043;-68
2021/06/13 12:23:07;;;;;;;8.50;3.03;;;;;;;;;;5114179;28;20375;-68
2021/06/13 12:28:16;;;;;;;6.25;2.85;;;;;;;;;;5113247;28;20060;-68
2021/06/13 12:30:43;;;;;;;7.05;2.78;;;;;;;;;;5108935;28;20106;-68
2021/06/13 12:33:12;;;;;;;8.77;2.70;;;;;;;;;;5113180;28;20034;-68
2021/06/13 12:35:46;;;;;;;4.70;2.20;;;;;;;;;;5113870;28;20062;-68
2021/06/13 12:38:21;;;;;;;9.68;4.28;;;;;;;;;;5113815;28;20096;-67
2021/06/13 12:40:48;;;;;;;7.28;2.60;;;;;;;;;;5113732;28;20046;-68
2021/06/13 12:43:14;;;;;;;8.90;2.80;;;;;;;;;;5113406;28;20037;-68
2021/06/13 12:45:40;;;;;;;7.45;3.28;;;;;;;;;;5114089;28;20035;-69
2021/06/13 12:48:08;;;;;;;5.55;2.45;;;;;;;;;;5113191;28;20027;-68
2021/06/13 12:50:43;;;;;;;4.93;2.47;;;;;;;;;;5112908;28;20031;-68
2021/06/13 12:53:11;;;;;;;5.07;2.65;;;;;;;;;;5114267;28;20076;-68
2021/06/13 12:55:40;;;;;;;6.90;2.60;;;;;;;;;;5114260;28;20035;-69
2021/06/13 12:58:13;;;;;;;5.65;3.08;;;;;;;;;;5114271;28;20111;-69
2021/06/13 13:00:38;;;;;;;5.78;2.35;;;;;;;;;;5114574;28;20085;-68
2021/06/13 13:03:11;;;;;;;55.25;31.92;;;;;;;;;;5114335;28;20032;-69
2021/06/13 13:05:37;;;;;;;28.98;18.65;;;;;;;;;;5114498;28;20122;-69
2021/06/13 13:08:12;;;;;;;15.73;11.25;;;;;;;;;;5114412;28;20019;-68
2021/06/13 13:10:37;;;;;;;7.15;3.70;;;;;;;;;;5114099;28;20047;-69
2021/06/13 13:13:06;;;;;;;6.47;2.50;;;;;;;;;;5113605;28;20472;-69
2021/06/13 13:15:32;;;;;;;10.60;2.95;;;;;;;;;;5113278;28;20050;-69
2021/06/13 13:18:11;;;;;;;7.28;3.40;;;;;;;;;;5113742;28;20016;-69
2021/06/13 13:20:37;;;;;;;6.88;2.78;;;;;;;;;;5114286;28;20380;-69
2021/06/13 13:23:07;;;;;;;4.82;2.63;;;;;;;;;;5113386;28;20035;-68
2021/06/13 13:25:34;;;;;;;8.70;2.60;;;;;;;;;;5114224;28;20068;-68
2021/06/13 13:28:17;;;;;;;9.15;3.00;;;;;;;;;;5113891;28;20051;-69
2021/06/13 13:30:42;;;;;;;7.90;2.90;;;;;;;;;;5113865;28;20062;-69
2021/06/13 13:33:07;;;;;;;4.82;2.75;;;;;;;;;;5113862;28;20387;-69
2021/06/13 13:35:41;;;;;;;7.95;2.83;;;;;;;;;;5113980;28;20471;-69
2021/06/13 13:38:07;;;;;;;10.95;3.30;;;;;;;;;;5113745;28;20065;-68
2021/06/13 13:40:33;;;;;;;4.78;2.40;;;;;;;;;;5114058;28;20023;-69
2021/06/13 13:43:01;;;;;;;7.15;3.35;;;;;;;;;;5114109;28;20054;-69
2021/06/13 13:45:28;;;;;;;5.55;3.05;;;;;;;;;;5113923;28;20031;-69
2021/06/13 13:48:04;;;;;;;7.38;3.08;;;;;;;;;;5113810;28;20038;-69
2021/06/13 13:50:33;;;;;;;11.18;3.20;;;;;;;;;;5113953;28;20067;-69
2021/06/13 13:53:12;;;;;;;8.38;3.40;;;;;;;;;;5113312;28;20031;-69
2021/06/13 13:55:46;;;;;;;14.75;3.22;;;;;;;;;;5113694;28;20046;-69
2021/06/13 13:58:11;;;;;;;12.57;6.72;;;;;;;;;;5113539;28;20032;-68
2021/06/13 14:00:37;;;;;;;7.32;3.42;;;;;;;;;;5112915;28;20046;-69
2021/06/13 14:03:04;;;;;;;6.65;2.78;;;;;;;;;;5113111;28;20023;-68
2021/06/13 14:05:29;;;;;;;5.82;3.53;;;;;;;;;;5099354;28;20027;-69
2021/06/13 14:07:54;;;;;;;8.02;2.88;;;;;;;;;;5113316;28;20462;-69
2021/06/13 14:10:20;;;;;;;9.13;2.85;;;;;;;;;;5112974;28;20036;-69
2021/06/13 14:12:45;;;;;;;10.57;3.45;;;;;;;;;;5113056;28;20453;-68
2021/06/13 14:15:13;;;;;;;7.18;2.85;;;;;;;;;;5112925;28;20047;-69
2021/06/13 14:17:38;;;;;;;7.93;2.65;;;;;;;;;;5095492;28;20379;-67
2021/06/13 14:20:06;;;;;;;5.38;2.60;;;;;;;;;;5112637;28;20035;-68
2021/06/13 14:22:31;;;;;;;7.63;2.95;;;;;;;;;;5113502;28;20039;-69
2021/06/13 14:24:56;;;;;;;10.65;3.45;;;;;;;;;;5113031;28;20049;-68
2021/06/13 14:27:22;;;;;;;5.82;3.38;;;;;;;;;;5117410;28;20028;-69
2021/06/13 14:29:47;;;;;;;8.43;3.10;;;;;;;;;;5116973;28;20027;-69
2021/06/13 14:32:12;;;;;;;4.50;2.97;;;;;;;;;;5117523;28;20514;-69
2021/06/13 14:34:38;;;;;;;10.05;3.65;;;;;;;;;;5117310;28;20040;-69
2021/06/13 14:37:03;;;;;;;6.40;2.95;;;;;;;;;;5117253;28;20388;-70
2021/06/13 14:39:28;;;;;;;12.15;3.55;;;;;;;;;;5092854;28;20027;-69
2021/06/13 14:41:53;;;;;;;9.15;3.28;;;;;;;;;;5114141;28;20038;-69